Aérodrome :
LOGIN :

S'inscrire | Disclaimer

   EN    FR    IT 

 










Légende :    VFR   VFR Marginal   IFR   IFR Intensif   IFR Très Intensif
Visi : 
Plafond : 
>= 8 km
>= 3000ft
5 à 8 km
1000 à 3000 ft
1500m à 5 km
500 à 1000 ft
800 à 1500m
200 à 500 ft
< 800m
< 200 ft
Symboles :   Orages  Brouillard  Fortes neiges  Fortes précipitations  Vent > 20 kt
SIGMETs :   Divers  Orages  Givrage  Turbulence  Onde Orograph.  Cendres Volcan.






- Altitude de l'aérodrome : 659 ft
- Code IATA : LYN


LFLY - Lyon Bron

DERNIER METAR :
  • 030830Z AUTO 16010KT 130V190 CAVOK 23/15 Q1008 BECMG FEW050TCU

METARs EXPIRÉS :
  • 030800Z AUTO 18006KT 130V230 CAVOK 23/14 Q1008 BECMG FEW050TCU
  • 030730Z AUTO 17008KT CAVOK 21/14 Q1009 BECMG FEW050TCU
  • 030700Z AUTO 16008KT CAVOK 21/14 Q1009 BECMG FEW050TCU
  • 030630Z AUTO 16007KT CAVOK 20/14 Q1009 BECMG FEW050TCU
  • 030600Z AUTO 16006KT 130V190 CAVOK 19/14 Q1009 NOSIG

TAF TAF LFLY
Valide du 03 à 06h jusqu'au 04 à 06h UTC


030500Z 0306/0406 18006KT CAVOK
BECMG 0308/0310 FEW050TCU
TEMPO 0312/0317 VRB15G25KT 4000 SHRA BKN050TCU
PROB40
TEMPO 0313/0317 VRB20G40KT 2000 TSRA BKN050CB
PROB30
TEMPO 0313/0316 1000 TSGR
BECMG 0316/0318 RA BKN045 SCT050TCU
TEMPO 0317/0323 3000 +RA BKN011 BKN050TCU
BECMG 0400/0402 18015KT CAVOK
ATIS : +33 4 72 15 87 96



MET'MAP, la Météo Aéronautique d'un coup d'oeil ! - Copyright ORBIFLY Décembre 2007 - Disclaimer

ORBIFLY MET'MAP TEAM :

Programmation & Développement : Alexandra Zaïnal
Sur une idée originale de : Baudouin d'Aumeries
Assistance à la programmation : Marc-Olivier Méhu
Soutien technique & logistique : Manuel Goepfert

Contact : metmap@orbifly.com




SOURCES & CREDITS :

   NOAA